createdAt,value
2022-12-17T00:01:56.923Z,22.37
2022-12-17T00:04:49.055Z,19.83
2022-12-17T00:07:34.990Z,20.13
2022-12-17T00:10:27.069Z,19.35
2022-12-17T00:13:12.955Z,24.65
2022-12-17T00:16:05.101Z,20.30
2022-12-17T00:18:57.810Z,23.10
2022-12-17T00:21:50.077Z,22.87
2022-12-17T00:24:36.031Z,23.95
2022-12-17T00:27:28.078Z,21.33
2022-12-17T00:30:14.135Z,22.30
2022-12-17T00:33:06.097Z,22.20
2022-12-17T00:35:52.080Z,26.40
2022-12-17T00:38:45.052Z,24.00
2022-12-17T00:41:30.884Z,26.67
2022-12-17T00:44:23.073Z,23.00
2022-12-17T00:47:09.333Z,23.10
2022-12-17T00:50:02.070Z,21.38
2022-12-17T00:52:47.993Z,17.98
2022-12-17T00:55:40.239Z,21.08
2022-12-17T00:58:26.152Z,15.02
2022-12-17T01:01:19.190Z,20.23
2022-12-17T01:04:04.915Z,17.35
2022-12-17T01:06:57.087Z,21.90
2022-12-17T01:09:42.986Z,16.25
2022-12-17T01:12:35.077Z,20.80
2022-12-17T01:15:21.015Z,13.93
2022-12-17T01:18:14.110Z,16.35
2022-12-17T01:21:00.098Z,16.55
2022-12-17T01:23:52.062Z,20.48
2022-12-17T01:26:38.037Z,19.33
2022-12-17T01:29:31.072Z,15.73
2022-12-17T01:32:16.926Z,13.77
2022-12-17T01:35:09.069Z,16.92
2022-12-17T01:37:54.999Z,13.57
2022-12-17T01:40:47.083Z,16.48
2022-12-17T01:43:33.405Z,14.13
2022-12-17T01:46:26.078Z,15.18
2022-12-17T01:49:21.206Z,15.63
2022-12-17T01:52:07.854Z,14.18
2022-12-17T01:55:06.203Z,17.05
2022-12-17T01:57:58.766Z,14.47
2022-12-17T02:00:51.255Z,15.57
2022-12-17T02:03:38.126Z,19.85
2022-12-17T02:06:50.097Z,17.27
2022-12-17T02:09:49.043Z,13.45
2022-12-17T02:12:50.077Z,16.88
2022-12-17T02:15:40.125Z,15.88
2022-12-17T02:18:43.165Z,14.20
2022-12-17T02:21:37.005Z,10.85
2022-12-17T02:24:40.082Z,18.42
2022-12-17T02:27:27.992Z,11.50
2022-12-17T02:30:21.095Z,12.73
2022-12-17T02:33:07.244Z,13.68
2022-12-17T02:36:02.077Z,14.38
2022-12-17T02:38:49.091Z,14.82
2022-12-17T02:41:47.081Z,17.38
2022-12-17T02:44:34.213Z,13.60
2022-12-17T02:47:29.076Z,12.77
2022-12-17T02:50:15.041Z,14.07
2022-12-17T02:53:09.082Z,19.45
2022-12-17T02:55:55.469Z,15.90
2022-12-17T02:58:48.080Z,18.75
2022-12-17T03:01:34.063Z,16.17
2022-12-17T03:04:26.086Z,16.77
2022-12-17T03:07:11.984Z,13.65
2022-12-17T03:10:04.108Z,12.02
2022-12-17T03:12:50.103Z,19.48
2022-12-17T03:15:43.195Z,18.30
2022-12-17T03:18:35.639Z,17.50
2022-12-17T03:21:28.081Z,12.20
2022-12-17T03:24:13.894Z,15.35
2022-12-17T03:27:06.091Z,19.50
2022-12-17T03:29:51.993Z,18.42
2022-12-17T03:32:44.121Z,18.98
2022-12-17T03:35:30.071Z,18.88
2022-12-17T03:38:23.079Z,20.65
2022-12-17T03:41:11.697Z,17.27
2022-12-17T03:46:50.093Z,12.63
2022-12-17T03:49:42.153Z,19.83
2022-12-17T03:52:34.231Z,15.70
2022-12-17T03:55:20.100Z,16.50
2022-12-17T03:58:13.251Z,15.02
2022-12-17T04:00:59.291Z,16.75
2022-12-17T04:03:52.248Z,17.02
2022-12-17T04:06:37.916Z,13.85
2022-12-17T04:09:30.264Z,17.65
2022-12-17T04:12:16.246Z,20.70
2022-12-17T04:15:08.116Z,19.02
2022-12-17T04:18:01.079Z,18.70
2022-12-17T04:20:53.114Z,20.20
2022-12-17T04:23:39.245Z,17.60
2022-12-17T04:26:39.085Z,19.85
2022-12-17T04:29:24.965Z,19.80
2022-12-17T04:32:17.104Z,17.92
2022-12-17T04:35:03.087Z,20.35
2022-12-17T04:37:55.109Z,19.00
2022-12-17T04:40:41.039Z,19.30
2022-12-17T04:43:34.417Z,20.40
2022-12-17T04:46:20.642Z,16.27
2022-12-17T04:49:13.140Z,18.50
2022-12-17T04:51:59.051Z,21.15
2022-12-17T04:54:51.147Z,25.98
2022-12-17T04:57:37.058Z,23.33
2022-12-17T05:00:29.351Z,24.50
2022-12-17T05:03:15.326Z,19.67
2022-12-17T05:06:08.091Z,17.50
2022-12-17T05:08:54.079Z,24.42
2022-12-17T05:11:46.089Z,13.95
2022-12-17T05:14:32.015Z,19.65
2022-12-17T05:17:24.098Z,18.45
2022-12-17T05:20:16.962Z,19.88
2022-12-17T05:23:09.098Z,19.63
2022-12-17T05:25:55.076Z,23.05
2022-12-17T05:29:02.117Z,20.17
2022-12-17T05:31:54.853Z,25.38
2022-12-17T05:34:47.124Z,22.77
2022-12-17T05:37:33.002Z,25.20
2022-12-17T05:40:25.126Z,28.67
2022-12-17T05:43:18.274Z,36.17
2022-12-17T05:46:11.177Z,27.63
2022-12-17T05:48:57.268Z,19.67
2022-12-17T05:51:50.098Z,27.83
2022-12-17T05:54:43.242Z,18.58
2022-12-17T05:57:29.198Z,23.55
2022-12-17T06:00:22.246Z,19.90
2022-12-17T06:03:08.173Z,26.95
2022-12-17T06:06:00.244Z,34.30
2022-12-17T06:08:46.256Z,29.50
2022-12-17T06:11:38.148Z,24.00
2022-12-17T06:14:24.172Z,31.25
2022-12-17T06:17:17.098Z,27.35
2022-12-17T06:20:09.023Z,29.92
2022-12-17T06:23:01.229Z,33.30
2022-12-17T06:25:47.123Z,32.63
2022-12-17T06:28:39.099Z,29.95
2022-12-17T06:31:25.329Z,35.20
2022-12-17T06:34:17.126Z,33.72
2022-12-17T06:37:04.243Z,38.80
2022-12-17T06:39:56.127Z,32.17
2022-12-17T06:42:42.356Z,34.53
2022-12-17T06:45:35.116Z,28.58
2022-12-17T06:48:24.644Z,31.17
2022-12-17T06:51:19.142Z,33.00
2022-12-17T06:54:07.817Z,24.80
2022-12-17T06:59:46.010Z,24.35
2022-12-17T07:02:38.183Z,30.45
2022-12-17T07:05:27.107Z,32.95
2022-12-17T07:08:26.115Z,29.80
2022-12-17T07:11:12.166Z,30.33
2022-12-17T07:14:05.294Z,22.92
2022-12-17T07:16:51.297Z,23.73
2022-12-17T07:19:50.135Z,31.98
2022-12-17T07:22:36.023Z,21.15
2022-12-17T07:25:28.122Z,31.85
2022-12-17T07:28:14.666Z,26.60
2022-12-17T07:31:07.137Z,30.20
2022-12-17T07:33:53.293Z,30.58
2022-12-17T07:36:46.152Z,31.88
2022-12-17T07:39:32.030Z,30.33
2022-12-17T07:42:24.109Z,32.97
2022-12-17T07:45:10.174Z,51.70
2022-12-17T07:48:03.132Z,36.38
2022-12-17T07:50:49.139Z,33.67
2022-12-17T07:53:41.123Z,28.42
2022-12-17T07:56:27.010Z,44.90
2022-12-17T07:59:19.129Z,44.72
2022-12-17T08:02:12.493Z,45.83
2022-12-17T08:04:58.572Z,37.53
2022-12-17T08:07:51.267Z,37.85
2022-12-17T08:10:43.992Z,37.92
2022-12-17T08:13:37.449Z,40.65
2022-12-17T08:16:23.895Z,44.28
2022-12-17T08:19:22.143Z,44.95
2022-12-17T08:22:12.809Z,37.13
2022-12-17T08:25:05.202Z,27.20
2022-12-17T08:27:50.926Z,35.22
2022-12-17T08:30:43.273Z,41.08
2022-12-17T08:33:29.313Z,39.00
2022-12-17T08:36:23.143Z,40.97
2022-12-17T08:39:09.069Z,43.20
2022-12-17T08:42:04.324Z,44.35
2022-12-17T08:44:50.687Z,34.40
2022-12-17T08:47:43.263Z,43.63
2022-12-17T08:50:29.125Z,37.17
2022-12-17T08:53:33.271Z,41.95
2022-12-17T08:56:20.773Z,40.28
2022-12-17T08:59:13.138Z,38.80
2022-12-17T09:01:59.382Z,38.33
2022-12-17T09:04:52.135Z,47.13
2022-12-17T09:07:38.162Z,45.38
2022-12-17T09:10:31.137Z,46.33
2022-12-17T09:13:20.572Z,36.85
2022-12-17T09:16:17.211Z,42.42
2022-12-17T09:19:10.182Z,45.20
2022-12-17T09:22:03.155Z,47.47
2022-12-17T09:24:49.384Z,48.70
2022-12-17T09:27:42.168Z,49.45
2022-12-17T09:30:28.604Z,39.80
2022-12-17T09:33:21.285Z,32.90
2022-12-17T09:36:07.218Z,50.13
2022-12-17T09:39:00.174Z,50.42
2022-12-17T09:42:00.175Z,43.72
2022-12-17T09:44:48.521Z,43.15
2022-12-17T09:48:13.149Z,52.17
2022-12-17T09:50:59.328Z,50.50
2022-12-17T09:53:58.347Z,46.88
2022-12-17T09:56:45.248Z,48.05
2022-12-17T09:59:47.294Z,67.25
2022-12-17T10:02:36.459Z,65.40
2022-12-17T10:05:32.140Z,57.08
2022-12-17T10:08:18.766Z,62.60
2022-12-17T10:11:12.178Z,57.55
2022-12-17T10:13:58.028Z,62.20
2022-12-17T10:16:54.142Z,48.15
2022-12-17T10:19:47.021Z,39.33
2022-12-17T10:22:40.157Z,61.83
2022-12-17T10:25:27.246Z,52.53
2022-12-17T10:28:19.221Z,56.17
2022-12-17T10:31:07.115Z,63.20
2022-12-17T10:34:03.190Z,57.67
2022-12-17T10:36:49.182Z,60.97
2022-12-17T10:39:43.307Z,77.72
2022-12-17T10:42:58.029Z,76.60
2022-12-17T10:45:55.241Z,76.85
2022-12-17T10:48:42.303Z,76.38
2022-12-17T10:51:46.183Z,81.35
2022-12-17T10:54:49.464Z,72.47
2022-12-17T10:57:49.162Z,64.95
2022-12-17T11:00:49.067Z,88.15
2022-12-17T11:03:49.332Z,79.40
2022-12-17T11:06:42.442Z,97.10
2022-12-17T11:09:41.166Z,92.43
2022-12-17T11:12:31.168Z,87.85
2022-12-17T11:15:26.176Z,81.70
2022-12-17T11:18:18.823Z,93.80
2022-12-17T11:21:24.160Z,100.15
2022-12-17T11:24:11.177Z,108.10
2022-12-17T11:27:05.177Z,96.75
2022-12-17T11:29:51.191Z,95.57
2022-12-17T11:32:43.166Z,117.95
2022-12-17T11:35:40.243Z,96.07
2022-12-17T11:38:35.544Z,108.68
2022-12-17T11:41:27.275Z,114.72
2022-12-17T11:44:26.194Z,119.30
2022-12-17T11:47:20.975Z,130.25
2022-12-17T11:50:13.229Z,126.38
2022-12-17T11:53:11.037Z,120.47
2022-12-17T11:56:16.165Z,114.65
2022-12-17T11:59:09.588Z,115.55
2022-12-17T12:02:07.312Z,118.22
2022-12-17T12:05:12.632Z,112.38
2022-12-17T12:08:17.178Z,140.65
2022-12-17T12:11:05.734Z,146.95
2022-12-17T12:14:07.204Z,147.32
2022-12-17T12:16:58.699Z,119.93
2022-12-17T12:19:54.181Z,156.27
2022-12-17T12:22:46.221Z,160.05
2022-12-17T12:25:41.190Z,128.57
2022-12-17T12:28:42.070Z,128.30
2022-12-17T12:31:53.237Z,141.57
2022-12-17T12:34:49.568Z,151.52
2022-12-17T12:37:48.194Z,122.45
2022-12-17T12:40:51.043Z,107.00
2022-12-17T12:43:48.187Z,132.57
2022-12-17T12:47:00.302Z,115.70
2022-12-17T12:49:54.894Z,128.15
2022-12-17T12:52:49.372Z,148.77
2022-12-17T12:55:35.585Z,127.80
2022-12-17T12:58:29.342Z,167.27
2022-12-17T13:01:15.365Z,166.50
2022-12-17T13:04:10.338Z,140.82
2022-12-17T13:06:43.622Z,154.52
2022-12-17T13:09:23.332Z,146.40
2022-12-17T13:11:54.396Z,146.45
2022-12-17T13:14:31.319Z,157.60
2022-12-17T13:17:02.285Z,175.13
2022-12-17T13:19:54.349Z,149.20
2022-12-17T13:22:24.259Z,149.13
2022-12-17T13:24:52.774Z,146.95
2022-12-17T13:27:39.197Z,135.90
2022-12-17T13:30:18.746Z,144.73
2022-12-17T13:33:11.351Z,153.35
2022-12-17T13:35:59.490Z,135.32
2022-12-17T13:38:52.194Z,135.07
2022-12-17T13:41:26.234Z,88.75
2022-12-17T13:43:56.957Z,143.20
2022-12-17T13:46:30.395Z,154.23
2022-12-17T13:49:01.834Z,162.77
2022-12-17T13:51:37.349Z,177.13
2022-12-17T13:54:05.055Z,145.27
2022-12-17T13:56:33.567Z,139.32
2022-12-17T13:59:11.191Z,140.25
2022-12-17T14:01:46.429Z,138.07
2022-12-17T14:04:31.235Z,147.65
2022-12-17T14:06:59.762Z,140.57
2022-12-17T14:09:39.224Z,145.70
2022-12-17T14:12:22.370Z,136.13
2022-12-17T14:15:07.347Z,122.88
2022-12-17T14:17:45.801Z,123.15
2022-12-17T14:20:39.218Z,140.18
2022-12-17T14:23:20.215Z,153.35
2022-12-17T14:25:48.957Z,149.88
2022-12-17T14:28:39.694Z,143.77
2022-12-17T14:31:27.967Z,136.15
2022-12-17T14:34:14.220Z,144.75
2022-12-17T14:36:42.665Z,154.43
2022-12-17T14:39:27.223Z,149.00
2022-12-17T14:42:13.894Z,143.25
2022-12-17T14:44:58.349Z,149.48
2022-12-17T14:47:26.884Z,128.70
2022-12-17T14:50:02.214Z,143.60
2022-12-17T14:52:46.208Z,133.30
2022-12-17T14:55:29.236Z,146.10
2022-12-17T14:58:07.900Z,156.48
2022-12-17T15:00:44.345Z,146.57
2022-12-17T15:03:13.833Z,144.48
2022-12-17T15:05:41.010Z,136.50
2022-12-17T15:08:14.404Z,143.18
2022-12-17T15:10:41.680Z,152.07
2022-12-17T15:13:08.760Z,136.70
2022-12-17T15:15:42.273Z,157.45
2022-12-17T15:18:16.298Z,159.90
2022-12-17T15:20:56.339Z,174.55
2022-12-17T15:23:23.881Z,149.30
2022-12-17T15:28:25.230Z,147.25
2022-12-17T15:30:52.525Z,135.60
2022-12-17T15:33:26.388Z,137.68
2022-12-17T15:35:53.489Z,123.93
2022-12-17T15:38:20.596Z,143.27
2022-12-17T15:40:54.252Z,134.52
2022-12-17T15:43:21.387Z,118.32
2022-12-17T15:45:56.254Z,131.85
2022-12-17T15:48:23.420Z,138.45
2022-12-17T15:50:57.298Z,120.50
2022-12-17T15:53:24.368Z,123.57
2022-12-17T15:55:51.502Z,119.53
2022-12-17T15:58:25.253Z,108.57
2022-12-17T16:00:52.317Z,112.70
2022-12-17T16:03:26.334Z,116.50
2022-12-17T16:05:53.500Z,115.13
2022-12-17T16:08:27.354Z,112.97
2022-12-17T16:10:54.429Z,114.03
2022-12-17T16:13:21.565Z,118.32
2022-12-17T16:16:04.548Z,112.60
2022-12-17T16:18:39.039Z,119.65
2022-12-17T16:21:19.367Z,112.32
2022-12-17T16:23:46.657Z,114.88
2022-12-17T16:26:13.746Z,102.55
2022-12-17T16:28:50.335Z,105.60
2022-12-17T16:31:17.571Z,109.38
2022-12-17T16:33:52.391Z,107.10
2022-12-17T16:36:20.164Z,95.63
2022-12-17T16:38:48.727Z,90.22
2022-12-17T16:41:23.391Z,108.22
2022-12-17T16:43:50.787Z,97.53
2022-12-17T16:46:38.452Z,97.75
2022-12-17T16:49:10.096Z,100.22
2022-12-17T16:51:37.325Z,112.70
2022-12-17T16:54:15.233Z,111.82
2022-12-17T16:56:42.917Z,95.70
2022-12-17T16:59:17.406Z,106.93
2022-12-17T17:01:46.184Z,111.35
2022-12-17T17:04:13.940Z,105.97
2022-12-17T17:06:48.251Z,101.18
2022-12-17T17:09:16.012Z,106.70
2022-12-17T17:11:52.075Z,104.35
2022-12-17T17:14:19.954Z,101.15
2022-12-17T17:16:53.388Z,93.07
2022-12-17T17:19:27.304Z,101.72
2022-12-17T17:22:01.371Z,100.72
2022-12-17T17:24:28.516Z,96.63
2022-12-17T17:26:56.146Z,106.45
2022-12-17T17:32:13.294Z,87.38
2022-12-17T17:34:47.446Z,96.72
2022-12-17T17:37:14.613Z,99.32
2022-12-17T17:39:41.912Z,95.07
2022-12-17T17:42:15.287Z,96.20
2022-12-17T17:44:42.591Z,97.45
2022-12-17T17:47:09.759Z,95.97
2022-12-17T17:49:43.328Z,84.40
2022-12-17T17:52:11.348Z,114.80
2022-12-17T17:54:46.265Z,124.43
2022-12-17T17:57:13.461Z,97.30
2022-12-17T17:59:47.290Z,103.28
2022-12-17T18:02:14.617Z,88.05
2022-12-17T18:04:48.514Z,102.13
2022-12-17T18:07:25.349Z,99.90
2022-12-17T18:09:59.257Z,83.00
2022-12-17T18:12:44.993Z,82.63
2022-12-17T18:15:18.834Z,83.35
2022-12-17T18:17:47.757Z,79.00
2022-12-17T18:20:28.250Z,89.43
2022-12-17T18:23:02.403Z,84.82
2022-12-17T18:25:37.881Z,80.70
2022-12-17T18:28:05.255Z,85.50
2022-12-17T18:30:39.434Z,89.47
2022-12-17T18:33:06.519Z,93.57
2022-12-17T18:35:33.601Z,78.88
2022-12-17T18:38:07.264Z,81.32
2022-12-17T18:40:36.310Z,83.15
2022-12-17T18:43:28.307Z,79.07
2022-12-17T18:45:55.394Z,80.90
2022-12-17T18:48:24.830Z,83.10
2022-12-17T18:51:05.620Z,82.15
2022-12-17T18:53:33.544Z,86.25
2022-12-17T18:56:19.359Z,85.93
2022-12-17T18:58:54.320Z,90.35
2022-12-17T19:01:29.459Z,89.97
2022-12-17T19:03:56.872Z,85.53
2022-12-17T19:06:25.186Z,86.30
2022-12-17T19:08:59.265Z,76.43
2022-12-17T19:11:26.405Z,77.50
2022-12-17T19:14:00.335Z,75.10
2022-12-17T19:16:29.006Z,77.07
2022-12-17T19:19:17.440Z,103.85
2022-12-17T19:21:44.550Z,74.07
2022-12-17T19:24:16.254Z,82.32
2022-12-17T19:26:50.278Z,82.93
2022-12-17T19:29:18.134Z,77.88
2022-12-17T19:31:52.380Z,74.22
2022-12-17T19:34:19.694Z,82.63
2022-12-17T19:36:47.204Z,78.43
2022-12-17T19:39:22.286Z,86.47
2022-12-17T19:41:51.031Z,89.20
2022-12-17T19:44:26.341Z,85.90
2022-12-17T19:46:53.810Z,80.68
2022-12-17T19:49:20.905Z,82.28
2022-12-17T19:51:54.447Z,81.43
2022-12-17T19:54:24.452Z,76.35
2022-12-17T19:56:51.531Z,95.20
2022-12-17T19:59:25.347Z,71.07
2022-12-17T20:01:52.552Z,74.57
2022-12-17T20:04:19.803Z,87.45
2022-12-17T20:06:53.300Z,80.65
2022-12-17T20:09:20.414Z,87.65
2022-12-17T20:11:54.430Z,80.25
2022-12-17T20:14:23.904Z,80.10
2022-12-17T20:17:02.327Z,67.00
2022-12-17T20:19:43.397Z,80.05
2022-12-17T20:22:17.420Z,91.18
2022-12-17T20:24:44.652Z,92.43
2022-12-17T20:27:11.759Z,84.93
2022-12-17T20:29:45.297Z,80.05
2022-12-17T20:32:12.441Z,83.22
2022-12-17T20:34:39.570Z,86.03
2022-12-17T20:37:13.278Z,86.82
2022-12-17T20:39:47.323Z,72.82
2022-12-17T20:42:14.401Z,84.05
2022-12-17T20:44:42.055Z,80.45
2022-12-17T20:47:15.290Z,74.43
2022-12-17T20:49:42.465Z,70.97
2022-12-17T20:52:16.325Z,82.30
2022-12-17T20:54:43.719Z,86.25
2022-12-17T20:57:17.435Z,78.30
2022-12-17T20:59:44.709Z,84.85
2022-12-17T21:02:12.000Z,70.82
2022-12-17T21:04:45.299Z,73.43
2022-12-17T21:07:12.440Z,74.03
2022-12-17T21:09:46.286Z,78.93
2022-12-17T21:12:13.700Z,78.32
2022-12-17T21:14:47.441Z,80.55
2022-12-17T21:17:14.971Z,82.70
2022-12-17T21:19:56.030Z,77.90
2022-12-17T21:22:30.316Z,82.20
2022-12-17T21:25:04.537Z,76.22
2022-12-17T21:27:31.609Z,80.50
2022-12-17T21:29:58.714Z,92.25
2022-12-17T21:35:01.206Z,86.13
2022-12-17T21:37:35.451Z,87.45
2022-12-17T21:40:02.551Z,83.70
2022-12-17T21:42:55.439Z,82.38
2022-12-17T21:45:22.608Z,88.97
2022-12-17T21:47:50.017Z,90.03
2022-12-17T21:50:23.316Z,85.95
2022-12-17T21:52:50.819Z,103.47
2022-12-17T21:55:24.286Z,103.53
2022-12-17T21:57:51.375Z,95.38
2022-12-17T22:00:25.451Z,96.57
2022-12-17T22:02:52.698Z,110.65
2022-12-17T22:05:19.947Z,110.43
2022-12-17T22:07:54.288Z,99.95
2022-12-17T22:10:34.888Z,115.88
2022-12-17T22:13:42.524Z,113.47
2022-12-17T22:16:09.879Z,115.43
2022-12-17T22:18:49.307Z,110.07
2022-12-17T22:21:24.284Z,108.32
2022-12-17T22:23:58.471Z,102.68
2022-12-17T22:26:25.547Z,98.25
2022-12-17T22:28:52.709Z,119.35
2022-12-17T22:31:46.319Z,110.22
2022-12-17T22:35:40.627Z,120.30
2022-12-17T22:39:47.171Z,115.00
2022-12-17T22:44:34.737Z,107.43
2022-12-17T22:44:43.836Z,102.63
2022-12-17T22:46:05.489Z,113.20
2022-12-17T22:48:33.889Z,100.18
2022-12-17T22:51:26.304Z,106.03
2022-12-17T22:54:04.300Z,104.22
2022-12-17T22:57:07.802Z,88.00
2022-12-17T22:59:25.677Z,107.03
2022-12-17T23:01:59.428Z,107.05
2022-12-17T23:04:26.600Z,100.80
2022-12-17T23:07:00.446Z,107.10
2022-12-17T23:09:27.556Z,97.22
2022-12-17T23:11:54.637Z,99.65
2022-12-17T23:14:28.327Z,91.85
2022-12-17T23:17:02.311Z,92.00
2022-12-17T23:19:43.506Z,107.78
2022-12-17T23:22:10.579Z,88.95
2022-12-17T23:24:37.729Z,97.63
2022-12-17T23:27:11.335Z,91.55
2022-12-17T23:29:38.486Z,94.50
2022-12-17T23:32:12.559Z,84.28
2022-12-17T23:34:39.722Z,87.72
2022-12-17T23:37:06.831Z,82.22
2022-12-17T23:39:40.426Z,84.05
2022-12-17T23:42:07.599Z,65.05
2022-12-17T23:44:34.683Z,110.90
2022-12-17T23:47:08.333Z,78.40
2022-12-17T23:49:35.447Z,84.18
2022-12-17T23:52:09.499Z,91.03
2022-12-17T23:54:36.587Z,92.45
2022-12-17T23:57:03.712Z,91.25
2022-12-17T23:59:37.349Z,97.72
